createdAt,value
2023-01-29T05:04:32.251Z,76.83
2023-01-29T05:08:37.218Z,76.21
2023-01-29T05:12:41.632Z,76.26
2023-01-29T05:16:46.510Z,76.04
2023-01-29T05:20:51.177Z,76.07
2023-01-29T05:24:53.832Z,76.50
2023-01-29T05:28:56.394Z,76.26
2023-01-29T05:32:58.950Z,76.74
2023-01-29T05:37:02.833Z,76.82
2023-01-29T05:41:11.698Z,76.42
2023-01-29T05:45:14.319Z,76.58
2023-01-29T05:49:17.719Z,76.86
2023-01-29T05:53:21.661Z,77.08
2023-01-29T05:57:24.198Z,77.35
2023-01-29T06:01:27.392Z,78.01
2023-01-29T06:05:29.910Z,77.36
2023-01-29T06:09:33.751Z,77.24
2023-01-29T06:13:36.394Z,77.62
2023-01-29T06:17:38.960Z,76.93
2023-01-29T06:21:41.478Z,77.24
2023-01-29T06:25:45.346Z,76.77
2023-01-29T06:29:47.995Z,76.67
2023-01-29T06:33:50.546Z,76.72
2023-01-29T06:37:53.080Z,76.90
2023-01-29T06:41:56.967Z,76.32
2023-01-29T06:45:59.545Z,76.22
2023-01-29T06:50:02.231Z,76.60
2023-01-29T06:54:06.347Z,76.87
2023-01-29T06:58:12.001Z,76.69
2023-01-29T07:02:15.057Z,76.33
2023-01-29T07:06:17.677Z,76.11
2023-01-29T07:10:20.171Z,76.26
2023-01-29T07:14:24.007Z,76.73
2023-01-29T07:18:26.602Z,76.53
2023-01-29T07:22:29.092Z,75.76
2023-01-29T07:26:31.603Z,76.80
2023-01-29T07:30:36.134Z,76.27
2023-01-29T07:34:38.662Z,76.33
2023-01-29T07:38:41.448Z,75.92
2023-01-29T07:42:44.182Z,76.11
2023-01-29T07:46:48.123Z,76.29
2023-01-29T07:50:55.825Z,76.22
2023-01-29T07:54:58.458Z,76.76
2023-01-29T07:59:01.161Z,76.33
2023-01-29T08:03:06.630Z,75.82
2023-01-29T08:07:09.405Z,76.18
2023-01-29T08:11:11.917Z,76.02
2023-01-29T08:15:14.406Z,76.07
2023-01-29T08:19:18.330Z,76.22
2023-01-29T08:23:20.967Z,75.59
2023-01-29T08:27:23.489Z,75.65
2023-01-29T08:31:26.148Z,74.81
2023-01-29T08:35:30.179Z,74.84
2023-01-29T08:39:33.773Z,75.03
2023-01-29T08:43:38.456Z,75.09
2023-01-29T08:47:46.399Z,75.29
2023-01-29T08:51:51.345Z,74.64
2023-01-29T08:55:54.886Z,74.38
2023-01-29T08:59:57.400Z,73.80
2023-01-29T09:04:00.044Z,73.19
2023-01-29T09:08:04.502Z,73.15
2023-01-29T09:12:07.693Z,73.28
2023-01-29T09:16:10.752Z,73.20
2023-01-29T09:20:13.553Z,73.29
2023-01-29T09:24:17.771Z,73.06
2023-01-29T09:28:20.275Z,73.16
2023-01-29T09:32:49.792Z,73.03
2023-01-29T09:36:45.308Z,72.40
2023-01-29T09:40:57.792Z,72.15
2023-01-29T09:45:06.379Z,71.66
2023-01-29T09:49:16.666Z,71.20
2023-01-29T09:53:22.591Z,71.05
2023-01-29T09:57:34.249Z,69.94
2023-01-29T10:01:46.832Z,69.80
2023-01-29T10:06:06.395Z,69.81
2023-01-29T10:10:28.405Z,69.08
2023-01-29T10:14:41.353Z,68.52
2023-01-29T10:19:10.124Z,67.85
2023-01-29T10:23:22.573Z,67.43
2023-01-29T10:27:32.813Z,67.38
2023-01-29T10:31:40.676Z,67.80
2023-01-29T10:35:49.514Z,67.48
2023-01-29T10:39:52.382Z,67.29
2023-01-29T10:44:06.825Z,65.75
2023-01-29T10:48:41.351Z,66.16
2023-01-29T10:52:58.074Z,66.04
2023-01-29T10:57:14.160Z,66.15
2023-01-29T11:01:17.152Z,65.02
2023-01-29T11:05:32.507Z,65.56
2023-01-29T11:09:41.000Z,66.25
2023-01-29T11:13:49.679Z,65.03
2023-01-29T11:18:11.427Z,65.04
2023-01-29T11:22:17.544Z,64.59
2023-01-29T11:26:23.882Z,63.94
2023-01-29T11:30:28.069Z,64.75
2023-01-29T11:34:31.917Z,65.69
2023-01-29T11:38:35.899Z,64.39
2023-01-29T11:42:38.432Z,64.32
2023-01-29T11:46:41.001Z,63.74
2023-01-29T11:50:44.009Z,63.76
2023-01-29T11:54:51.917Z,63.80
2023-01-29T11:58:57.527Z,64.32
2023-01-29T12:03:07.058Z,64.28
2023-01-29T12:07:15.558Z,63.83
2023-01-29T12:11:26.540Z,63.34
2023-01-29T12:15:29.061Z,63.55
2023-01-29T12:19:39.178Z,64.36
2023-01-29T12:23:48.512Z,64.07
2023-01-29T12:27:59.546Z,64.92
2023-01-29T12:32:11.334Z,64.83
2023-01-29T12:36:19.470Z,65.43
2023-01-29T12:40:26.187Z,65.48
2023-01-29T12:44:34.671Z,65.04
2023-01-29T12:48:42.406Z,66.15
2023-01-29T12:52:51.053Z,66.63
2023-01-29T12:56:59.167Z,66.12
2023-01-29T13:01:07.705Z,67.27
2023-01-29T13:05:21.652Z,66.29
2023-01-29T13:09:28.023Z,66.96
2023-01-29T13:13:33.904Z,67.45
2023-01-29T13:17:42.495Z,66.69
2023-01-29T13:21:46.533Z,66.44
2023-01-29T13:25:51.953Z,65.70
2023-01-29T13:29:57.146Z,65.90
2023-01-29T13:34:07.021Z,65.85
2023-01-29T13:38:25.204Z,64.61
2023-01-29T13:42:39.584Z,64.41
2023-01-29T13:46:42.855Z,64.15
2023-01-29T13:50:47.962Z,64.15
2023-01-29T13:54:53.640Z,64.97
2023-01-29T13:58:57.791Z,64.07
2023-01-29T14:04:04.074Z,64.79
2023-01-29T14:08:39.026Z,64.82
2023-01-29T14:12:42.779Z,64.83
2023-01-29T14:16:45.436Z,64.77
2023-01-29T14:20:58.874Z,64.79
2023-01-29T14:25:05.830Z,64.81
2023-01-29T14:29:29.066Z,65.01
2023-01-29T14:33:40.421Z,65.15
2023-01-29T14:37:49.116Z,64.92
2023-01-29T14:41:53.556Z,65.19
2023-01-29T14:45:56.097Z,65.44
2023-01-29T14:50:00.119Z,65.34
2023-01-29T14:54:05.851Z,65.50
2023-01-29T14:58:15.879Z,65.44
2023-01-29T15:02:25.076Z,65.96
2023-01-29T15:06:33.348Z,66.18
2023-01-29T15:10:41.273Z,65.90
2023-01-29T15:14:53.150Z,66.46
2023-01-29T15:19:07.966Z,66.64
2023-01-29T15:23:27.080Z,66.81
2023-01-29T15:27:29.987Z,67.44
2023-01-29T15:31:35.804Z,67.55
2023-01-29T15:35:40.614Z,67.34
2023-01-29T15:39:43.816Z,67.53
2023-01-29T15:43:48.394Z,67.59
2023-01-29T15:47:53.695Z,67.95
2023-01-29T15:51:58.415Z,68.16
2023-01-29T15:56:02.171Z,67.77
2023-01-29T16:00:08.133Z,67.53
2023-01-29T16:04:22.497Z,67.62
2023-01-29T16:08:27.498Z,68.10
2023-01-29T16:12:30.055Z,68.59
2023-01-29T16:16:32.802Z,69.98
2023-01-29T16:20:44.133Z,70.76
2023-01-29T16:24:47.864Z,70.91
2023-01-29T16:28:50.648Z,71.32
2023-01-29T16:32:53.367Z,71.64
2023-01-29T16:36:58.175Z,72.19
2023-01-29T16:41:14.459Z,72.52
2023-01-29T16:45:34.938Z,72.44
2023-01-29T16:49:45.674Z,72.11
2023-01-29T16:53:59.578Z,71.88
2023-01-29T16:58:12.069Z,72.00
2023-01-29T17:02:24.387Z,72.29
2023-01-29T17:06:27.700Z,72.47
2023-01-29T17:10:31.923Z,73.13
2023-01-29T17:14:35.915Z,72.78
2023-01-29T17:18:38.865Z,73.08
2023-01-29T17:22:41.365Z,73.52
2023-01-29T17:26:45.532Z,73.51
2023-01-29T17:31:00.231Z,73.88
2023-01-29T17:35:08.303Z,73.33
2023-01-29T17:39:17.316Z,73.22
2023-01-29T17:43:21.154Z,72.98
2023-01-29T17:47:23.692Z,72.85
2023-01-29T17:51:26.202Z,72.40
2023-01-29T17:55:28.699Z,72.33
2023-01-29T17:59:34.520Z,72.64
2023-01-29T18:03:37.063Z,72.59
2023-01-29T18:07:40.705Z,72.51
2023-01-29T18:11:44.003Z,73.14
2023-01-29T18:15:47.863Z,72.75
2023-01-29T18:19:50.473Z,72.93
2023-01-29T18:23:52.983Z,72.91
2023-01-29T18:27:55.528Z,72.70
2023-01-29T18:31:59.462Z,72.74
2023-01-29T18:36:04.728Z,72.54
2023-01-29T18:40:08.690Z,73.15
2023-01-29T18:44:11.334Z,72.68
2023-01-29T18:48:15.195Z,73.17
2023-01-29T18:52:17.729Z,73.80
2023-01-29T18:56:20.821Z,73.85
2023-01-29T19:00:23.673Z,73.82
2023-01-29T19:04:27.621Z,73.38
2023-01-29T19:08:30.163Z,73.72
2023-01-29T19:12:33.734Z,73.94
2023-01-29T19:16:36.272Z,73.76
2023-01-29T19:20:42.370Z,73.73
2023-01-29T19:24:45.778Z,73.68
2023-01-29T19:28:48.217Z,73.61
2023-01-29T19:32:50.723Z,73.89
2023-01-29T19:36:54.569Z,73.68
2023-01-29T19:40:57.077Z,73.29
2023-01-29T19:44:59.590Z,73.02
2023-01-29T19:49:03.493Z,73.47
2023-01-29T19:53:07.329Z,73.61
2023-01-29T19:57:09.887Z,73.76
2023-01-29T20:01:15.509Z,73.65
2023-01-29T20:05:18.695Z,73.34
2023-01-29T20:09:22.619Z,73.03
2023-01-29T20:13:25.431Z,73.24
2023-01-29T20:17:27.935Z,73.37
2023-01-29T20:21:30.498Z,73.36
2023-01-29T20:25:35.571Z,73.45
2023-01-29T20:29:38.473Z,73.66
2023-01-29T20:33:41.659Z,73.61
2023-01-29T20:37:44.155Z,73.50
2023-01-29T20:41:48.032Z,72.88
2023-01-29T20:45:50.574Z,72.71
2023-01-29T20:49:53.091Z,72.17
2023-01-29T20:53:56.337Z,71.77
2023-01-29T20:58:06.201Z,71.64
2023-01-29T21:02:11.639Z,72.06
2023-01-29T21:06:14.887Z,71.54
2023-01-29T21:10:18.278Z,71.81
2023-01-29T21:14:22.313Z,71.59
2023-01-29T21:18:25.664Z,71.60
2023-01-29T21:22:28.043Z,71.96
2023-01-29T21:26:30.599Z,71.70
2023-01-29T21:30:34.785Z,72.25
2023-01-29T21:34:37.313Z,72.32
2023-01-29T21:38:40.102Z,72.02
2023-01-29T21:43:00.462Z,71.99
2023-01-29T21:47:12.166Z,72.48
2023-01-29T21:51:15.334Z,72.38
2023-01-29T21:55:18.842Z,72.87
2023-01-29T21:59:21.617Z,73.09
